Terminal Aerodrome Forecast
Issued by NWS

Current Version | Previous Version | Graphics & Text | Print | Product List | Glossary On
Versions: 1 2 3 4 5 6 7 8 9 10 11 12 13 14 15 16 17 18 19 20 21 22
000
FTUS41 KILN 171121
TAFLUK
TAF
KLUK 171121Z 1712/1812 00000KT 1/2SM FG VV002
     FM171300 00000KT 2SM BR FEW002
     FM171400 00000KT P6SM FEW250
     FM171600 22006KT P6SM FEW250
     FM172300 00000KT P6SM SKC
     FM180600 00000KT 3SM BR SCT002
     FM180800 00000KT 1SM BR SCT002
      TEMPO 1808/1812 1/4SM FG VV002=

USA.gov is the U.S. government's official web portal to all federal, state and local government web resources and services.